sensor_id;sensor_type;location;lat;lon;timestamp;P1;durP1;ratioP1;P2;durP2;ratioP2
74821;SDS011;63353;48.702;8.884;2023-02-28T00:00:32;5.60;;;3.90;;
74821;SDS011;63353;48.702;8.884;2023-02-28T00:03:02;4.73;;;3.90;;
74821;SDS011;63353;48.702;8.884;2023-02-28T00:05:28;5.80;;;4.40;;
74821;SDS011;63353;48.702;8.884;2023-02-28T00:07:57;5.47;;;4.27;;
74821;SDS011;63353;48.702;8.884;2023-02-28T00:10:27;4.83;;;3.87;;
74821;SDS011;63353;48.702;8.884;2023-02-28T00:13:02;5.33;;;3.83;;
74821;SDS011;63353;48.702;8.884;2023-02-28T00:15:32;6.20;;;3.90;;
74821;SDS011;63353;48.702;8.884;2023-02-28T00:17:58;5.50;;;3.93;;
74821;SDS011;63353;48.702;8.884;2023-02-28T00:20:33;4.83;;;3.83;;
74821;SDS011;63353;48.702;8.884;2023-02-28T00:23:02;5.43;;;3.73;;
74821;SDS011;63353;48.702;8.884;2023-02-28T00:25:43;5.27;;;3.70;;
74821;SDS011;63353;48.702;8.884;2023-02-28T00:28:21;4.43;;;3.97;;
74821;SDS011;63353;48.702;8.884;2023-02-28T00:30:47;7.57;;;4.23;;
74821;SDS011;63353;48.702;8.884;2023-02-28T00:33:12;5.57;;;4.00;;
74821;SDS011;63353;48.702;8.884;2023-02-28T00:35:41;5.47;;;3.90;;
74821;SDS011;63353;48.702;8.884;2023-02-28T00:38:07;6.67;;;4.27;;
74821;SDS011;63353;48.702;8.884;2023-02-28T00:40:38;6.43;;;3.87;;
74821;SDS011;63353;48.702;8.884;2023-02-28T00:43:04;7.27;;;4.03;;
74821;SDS011;63353;48.702;8.884;2023-02-28T00:45:33;5.77;;;4.20;;
74821;SDS011;63353;48.702;8.884;2023-02-28T00:48:01;5.63;;;3.87;;
74821;SDS011;63353;48.702;8.884;2023-02-28T00:50:27;5.80;;;4.00;;
74821;SDS011;63353;48.702;8.884;2023-02-28T00:52:58;7.30;;;4.23;;
74821;SDS011;63353;48.702;8.884;2023-02-28T00:55:36;5.47;;;3.50;;
74821;SDS011;63353;48.702;8.884;2023-02-28T00:58:01;5.13;;;3.43;;
74821;SDS011;63353;48.702;8.884;2023-02-28T01:00:27;5.37;;;3.73;;
74821;SDS011;63353;48.702;8.884;2023-02-28T01:02:56;6.57;;;4.20;;
74821;SDS011;63353;48.702;8.884;2023-02-28T01:05:27;5.40;;;3.87;;
74821;SDS011;63353;48.702;8.884;2023-02-28T01:07:58;5.20;;;4.20;;
74821;SDS011;63353;48.702;8.884;2023-02-28T01:10:27;6.77;;;4.20;;
74821;SDS011;63353;48.702;8.884;2023-02-28T01:13:02;4.93;;;3.87;;
74821;SDS011;63353;48.702;8.884;2023-02-28T01:15:34;6.27;;;4.00;;
74821;SDS011;63353;48.702;8.884;2023-02-28T01:18:11;5.30;;;4.00;;
74821;SDS011;63353;48.702;8.884;2023-02-28T01:20:45;4.70;;;3.60;;
74821;SDS011;63353;48.702;8.884;2023-02-28T01:23:18;5.97;;;4.03;;
74821;SDS011;63353;48.702;8.884;2023-02-28T01:25:48;7.37;;;4.63;;
74821;SDS011;63353;48.702;8.884;2023-02-28T01:28:14;6.30;;;4.20;;
74821;SDS011;63353;48.702;8.884;2023-02-28T01:30:40;7.67;;;4.33;;
74821;SDS011;63353;48.702;8.884;2023-02-28T01:33:09;5.63;;;4.20;;
74821;SDS011;63353;48.702;8.884;2023-02-28T01:35:37;7.33;;;4.60;;
74821;SDS011;63353;48.702;8.884;2023-02-28T01:38:03;5.07;;;3.97;;
74821;SDS011;63353;48.702;8.884;2023-02-28T01:40:29;8.17;;;4.93;;
74821;SDS011;63353;48.702;8.884;2023-02-28T01:42:54;8.07;;;4.30;;
74821;SDS011;63353;48.702;8.884;2023-02-28T01:45:28;7.40;;;4.90;;
74821;SDS011;63353;48.702;8.884;2023-02-28T01:48:00;7.70;;;4.90;;
74821;SDS011;63353;48.702;8.884;2023-02-28T01:50:39;5.47;;;4.57;;
74821;SDS011;63353;48.702;8.884;2023-02-28T01:53:12;8.63;;;4.87;;
74821;SDS011;63353;48.702;8.884;2023-02-28T01:55:42;6.73;;;4.30;;
74821;SDS011;63353;48.702;8.884;2023-02-28T01:58:14;7.23;;;4.60;;
74821;SDS011;63353;48.702;8.884;2023-02-28T02:00:41;7.77;;;4.77;;
74821;SDS011;63353;48.702;8.884;2023-02-28T02:03:11;7.00;;;4.90;;
74821;SDS011;63353;48.702;8.884;2023-02-28T02:05:42;6.83;;;4.63;;
74821;SDS011;63353;48.702;8.884;2023-02-28T02:08:12;7.10;;;4.53;;
74821;SDS011;63353;48.702;8.884;2023-02-28T02:10:58;8.23;;;5.10;;
74821;SDS011;63353;48.702;8.884;2023-02-28T02:16:13;7.37;;;4.37;;
74821;SDS011;63353;48.702;8.884;2023-02-28T02:38:31;7.83;;;5.07;;
74821;SDS011;63353;48.702;8.884;2023-02-28T02:49:24;9.77;;;5.67;;
74821;SDS011;63353;48.702;8.884;2023-02-28T02:51:53;7.93;;;5.70;;
74821;SDS011;63353;48.702;8.884;2023-02-28T02:54:35;8.37;;;5.87;;
74821;SDS011;63353;48.702;8.884;2023-02-28T02:57:08;9.47;;;5.63;;
74821;SDS011;63353;48.702;8.884;2023-02-28T02:59:53;8.53;;;6.20;;
74821;SDS011;63353;48.702;8.884;2023-02-28T03:02:21;8.60;;;6.00;;
74821;SDS011;63353;48.702;8.884;2023-02-28T03:05:08;9.87;;;5.70;;
74821;SDS011;63353;48.702;8.884;2023-02-28T03:07:41;8.87;;;5.80;;
74821;SDS011;63353;48.702;8.884;2023-02-28T03:27:48;8.93;;;6.00;;
74821;SDS011;63353;48.702;8.884;2023-02-28T03:33:29;8.77;;;5.77;;
74821;SDS011;63353;48.702;8.884;2023-02-28T03:36:18;10.97;;;6.47;;
74821;SDS011;63353;48.702;8.884;2023-02-28T03:39:46;11.20;;;5.90;;
74821;SDS011;63353;48.702;8.884;2023-02-28T03:41:47;10.20;;;6.00;;
74821;SDS011;63353;48.702;8.884;2023-02-28T03:44:24;10.43;;;6.47;;
74821;SDS011;63353;48.702;8.884;2023-02-28T03:47:57;9.37;;;6.13;;
74821;SDS011;63353;48.702;8.884;2023-02-28T03:53:37;10.43;;;6.43;;
74821;SDS011;63353;48.702;8.884;2023-02-28T03:59:28;10.10;;;6.50;;
74821;SDS011;63353;48.702;8.884;2023-02-28T04:01:59;9.93;;;5.97;;
74821;SDS011;63353;48.702;8.884;2023-02-28T04:04:25;10.13;;;6.27;;
74821;SDS011;63353;48.702;8.884;2023-02-28T04:07:00;10.40;;;6.13;;
74821;SDS011;63353;48.702;8.884;2023-02-28T04:09:39;11.03;;;7.00;;
74821;SDS011;63353;48.702;8.884;2023-02-28T04:12:17;9.93;;;6.07;;
74821;SDS011;63353;48.702;8.884;2023-02-28T04:14:46;10.57;;;6.50;;
74821;SDS011;63353;48.702;8.884;2023-02-28T04:17:15;11.33;;;7.10;;
74821;SDS011;63353;48.702;8.884;2023-02-28T04:19:59;10.47;;;6.70;;
74821;SDS011;63353;48.702;8.884;2023-02-28T04:22:27;10.77;;;6.20;;
74821;SDS011;63353;48.702;8.884;2023-02-28T04:24:53;9.60;;;6.10;;
74821;SDS011;63353;48.702;8.884;2023-02-28T04:27:19;10.70;;;6.77;;
74821;SDS011;63353;48.702;8.884;2023-02-28T04:29:46;12.00;;;6.33;;
74821;SDS011;63353;48.702;8.884;2023-02-28T04:32:14;11.90;;;7.10;;
74821;SDS011;63353;48.702;8.884;2023-02-28T04:34:52;11.40;;;6.87;;
74821;SDS011;63353;48.702;8.884;2023-02-28T04:37:23;12.00;;;7.10;;
74821;SDS011;63353;48.702;8.884;2023-02-28T04:39:53;12.87;;;6.60;;
74821;SDS011;63353;48.702;8.884;2023-02-28T04:42:19;11.83;;;7.00;;
74821;SDS011;63353;48.702;8.884;2023-02-28T04:44:45;11.23;;;7.20;;
74821;SDS011;63353;48.702;8.884;2023-02-28T04:47:18;11.30;;;7.40;;
74821;SDS011;63353;48.702;8.884;2023-02-28T04:49:49;10.83;;;6.63;;
74821;SDS011;63353;48.702;8.884;2023-02-28T04:52:15;13.27;;;7.37;;
74821;SDS011;63353;48.702;8.884;2023-02-28T04:54:40;13.67;;;7.33;;
74821;SDS011;63353;48.702;8.884;2023-02-28T04:57:09;11.03;;;6.77;;
74821;SDS011;63353;48.702;8.884;2023-02-28T04:59:41;12.00;;;6.53;;
74821;SDS011;63353;48.702;8.884;2023-02-28T05:02:09;13.20;;;7.43;;
74821;SDS011;63353;48.702;8.884;2023-02-28T05:04:35;9.97;;;6.60;;
74821;SDS011;63353;48.702;8.884;2023-02-28T05:07:04;14.27;;;6.60;;
74821;SDS011;63353;48.702;8.884;2023-02-28T05:09:32;12.33;;;7.47;;
74821;SDS011;63353;48.702;8.884;2023-02-28T05:11:58;11.70;;;7.27;;
74821;SDS011;63353;48.702;8.884;2023-02-28T05:14:30;13.37;;;7.07;;
74821;SDS011;63353;48.702;8.884;2023-02-28T05:16:55;11.93;;;6.77;;
74821;SDS011;63353;48.702;8.884;2023-02-28T05:19:22;10.67;;;6.93;;
74821;SDS011;63353;48.702;8.884;2023-02-28T05:21:52;13.07;;;7.10;;
74821;SDS011;63353;48.702;8.884;2023-02-28T05:24:31;12.97;;;8.10;;
74821;SDS011;63353;48.702;8.884;2023-02-28T05:27:03;11.53;;;6.57;;
74821;SDS011;63353;48.702;8.884;2023-02-28T05:29:35;12.53;;;6.90;;
74821;SDS011;63353;48.702;8.884;2023-02-28T05:32:06;9.70;;;7.10;;
74821;SDS011;63353;48.702;8.884;2023-02-28T05:34:41;12.53;;;7.13;;
74821;SDS011;63353;48.702;8.884;2023-02-28T05:37:13;12.03;;;7.23;;
74821;SDS011;63353;48.702;8.884;2023-02-28T05:39:43;11.17;;;7.20;;
74821;SDS011;63353;48.702;8.884;2023-02-28T05:42:12;11.13;;;6.37;;
74821;SDS011;63353;48.702;8.884;2023-02-28T05:44:40;13.33;;;7.57;;
74821;SDS011;63353;48.702;8.884;2023-02-28T05:47:16;11.03;;;7.27;;
74821;SDS011;63353;48.702;8.884;2023-02-28T05:49:41;12.10;;;6.90;;
74821;SDS011;63353;48.702;8.884;2023-02-28T05:52:10;13.63;;;7.67;;
74821;SDS011;63353;48.702;8.884;2023-02-28T05:54:42;12.17;;;6.90;;
74821;SDS011;63353;48.702;8.884;2023-02-28T05:57:08;13.83;;;7.17;;
74821;SDS011;63353;48.702;8.884;2023-02-28T05:59:40;12.67;;;6.50;;
74821;SDS011;63353;48.702;8.884;2023-02-28T06:02:17;12.30;;;7.43;;
74821;SDS011;63353;48.702;8.884;2023-02-28T06:04:43;12.23;;;7.60;;
74821;SDS011;63353;48.702;8.884;2023-02-28T06:07:12;12.70;;;8.00;;
74821;SDS011;63353;48.702;8.884;2023-02-28T06:09:41;12.73;;;7.40;;
74821;SDS011;63353;48.702;8.884;2023-02-28T06:12:06;12.77;;;7.93;;
74821;SDS011;63353;48.702;8.884;2023-02-28T06:14:34;13.63;;;7.53;;
74821;SDS011;63353;48.702;8.884;2023-02-28T06:17:04;14.10;;;7.93;;
74821;SDS011;63353;48.702;8.884;2023-02-28T06:19:38;12.10;;;7.50;;
74821;SDS011;63353;48.702;8.884;2023-02-28T06:22:08;13.43;;;7.57;;
74821;SDS011;63353;48.702;8.884;2023-02-28T06:24:40;17.77;;;8.17;;
74821;SDS011;63353;48.702;8.884;2023-02-28T06:27:15;16.67;;;7.90;;
74821;SDS011;63353;48.702;8.884;2023-02-28T06:29:45;12.47;;;7.53;;
74821;SDS011;63353;48.702;8.884;2023-02-28T06:32:10;14.70;;;8.53;;
74821;SDS011;63353;48.702;8.884;2023-02-28T06:34:48;14.50;;;8.67;;
74821;SDS011;63353;48.702;8.884;2023-02-28T06:37:15;12.60;;;8.10;;
74821;SDS011;63353;48.702;8.884;2023-02-28T06:39:43;12.10;;;7.80;;
74821;SDS011;63353;48.702;8.884;2023-02-28T06:42:09;14.17;;;8.67;;
74821;SDS011;63353;48.702;8.884;2023-02-28T06:44:41;15.20;;;8.30;;
74821;SDS011;63353;48.702;8.884;2023-02-28T06:47:07;14.47;;;8.80;;
74821;SDS011;63353;48.702;8.884;2023-02-28T06:49:36;15.37;;;8.33;;
74821;SDS011;63353;48.702;8.884;2023-02-28T06:52:03;14.77;;;8.33;;
74821;SDS011;63353;48.702;8.884;2023-02-28T06:54:32;17.07;;;8.33;;
74821;SDS011;63353;48.702;8.884;2023-02-28T06:57:07;12.03;;;7.77;;
74821;SDS011;63353;48.702;8.884;2023-02-28T06:59:35;15.40;;;8.63;;
74821;SDS011;63353;48.702;8.884;2023-02-28T07:02:01;14.20;;;8.77;;
74821;SDS011;63353;48.702;8.884;2023-02-28T07:04:33;17.47;;;8.87;;
74821;SDS011;63353;48.702;8.884;2023-02-28T07:06:58;14.63;;;8.03;;
74821;SDS011;63353;48.702;8.884;2023-02-28T07:09:30;14.70;;;8.30;;
74821;SDS011;63353;48.702;8.884;2023-02-28T07:11:56;16.30;;;7.73;;
74821;SDS011;63353;48.702;8.884;2023-02-28T07:14:21;15.93;;;8.67;;
74821;SDS011;63353;48.702;8.884;2023-02-28T07:16:47;15.40;;;8.10;;
74821;SDS011;63353;48.702;8.884;2023-02-28T07:19:16;14.63;;;8.23;;
74821;SDS011;63353;48.702;8.884;2023-02-28T07:21:47;13.97;;;7.57;;
74821;SDS011;63353;48.702;8.884;2023-02-28T07:24:16;13.90;;;8.23;;
74821;SDS011;63353;48.702;8.884;2023-02-28T07:26:45;14.30;;;8.13;;
74821;SDS011;63353;48.702;8.884;2023-02-28T07:29:17;15.13;;;8.63;;
74821;SDS011;63353;48.702;8.884;2023-02-28T07:31:42;16.00;;;8.20;;
74821;SDS011;63353;48.702;8.884;2023-02-28T07:34:11;15.50;;;8.83;;
74821;SDS011;63353;48.702;8.884;2023-02-28T07:36:39;18.17;;;8.70;;
74821;SDS011;63353;48.702;8.884;2023-02-28T07:39:05;14.07;;;8.17;;
74821;SDS011;63353;48.702;8.884;2023-02-28T07:41:31;14.40;;;8.60;;
74821;SDS011;63353;48.702;8.884;2023-02-28T07:43:59;14.37;;;8.57;;
74821;SDS011;63353;48.702;8.884;2023-02-28T07:46:25;14.37;;;7.77;;
74821;SDS011;63353;48.702;8.884;2023-02-28T07:48:51;14.07;;;8.07;;
74821;SDS011;63353;48.702;8.884;2023-02-28T07:51:18;15.87;;;7.97;;
74821;SDS011;63353;48.702;8.884;2023-02-28T07:53:47;13.80;;;8.07;;
74821;SDS011;63353;48.702;8.884;2023-02-28T07:56:15;12.83;;;7.73;;
74821;SDS011;63353;48.702;8.884;2023-02-28T07:58:41;15.23;;;8.33;;
74821;SDS011;63353;48.702;8.884;2023-02-28T08:01:10;13.57;;;7.90;;
74821;SDS011;63353;48.702;8.884;2023-02-28T08:03:36;16.53;;;8.33;;
74821;SDS011;63353;48.702;8.884;2023-02-28T08:06:04;14.97;;;8.60;;
74821;SDS011;63353;48.702;8.884;2023-02-28T08:08:31;15.47;;;8.57;;
74821;SDS011;63353;48.702;8.884;2023-02-28T08:11:03;13.63;;;8.87;;
74821;SDS011;63353;48.702;8.884;2023-02-28T08:13:32;15.53;;;8.13;;
74821;SDS011;63353;48.702;8.884;2023-02-28T08:15:57;14.93;;;8.70;;
74821;SDS011;63353;48.702;8.884;2023-02-28T08:18:23;14.80;;;8.23;;
74821;SDS011;63353;48.702;8.884;2023-02-28T08:20:49;14.97;;;8.60;;
74821;SDS011;63353;48.702;8.884;2023-02-28T08:23:15;16.03;;;8.87;;
74821;SDS011;63353;48.702;8.884;2023-02-28T08:25:44;15.43;;;8.60;;
74821;SDS011;63353;48.702;8.884;2023-02-28T08:28:12;15.53;;;9.00;;
74821;SDS011;63353;48.702;8.884;2023-02-28T08:30:38;16.37;;;8.97;;
74821;SDS011;63353;48.702;8.884;2023-02-28T08:33:06;14.43;;;8.50;;
74821;SDS011;63353;48.702;8.884;2023-02-28T08:35:41;15.87;;;8.73;;
74821;SDS011;63353;48.702;8.884;2023-02-28T08:38:15;14.10;;;9.07;;
74821;SDS011;63353;48.702;8.884;2023-02-28T08:40:56;15.03;;;9.07;;
74821;SDS011;63353;48.702;8.884;2023-02-28T08:43:23;16.07;;;8.80;;
74821;SDS011;63353;48.702;8.884;2023-02-28T08:45:51;18.07;;;9.30;;
74821;SDS011;63353;48.702;8.884;2023-02-28T08:48:18;17.30;;;9.57;;
74821;SDS011;63353;48.702;8.884;2023-02-28T08:50:44;22.40;;;11.43;;
74821;SDS011;63353;48.702;8.884;2023-02-28T08:53:22;17.53;;;10.30;;
74821;SDS011;63353;48.702;8.884;2023-02-28T08:55:58;15.40;;;9.60;;
74821;SDS011;63353;48.702;8.884;2023-02-28T08:58:24;24.07;;;11.83;;
74821;SDS011;63353;48.702;8.884;2023-02-28T09:00:56;16.93;;;10.03;;
74821;SDS011;63353;48.702;8.884;2023-02-28T09:03:22;16.87;;;9.87;;
74821;SDS011;63353;48.702;8.884;2023-02-28T09:05:55;31.43;;;17.73;;
74821;SDS011;63353;48.702;8.884;2023-02-28T09:08:22;21.27;;;12.73;;
74821;SDS011;63353;48.702;8.884;2023-02-28T09:10:55;27.93;;;17.57;;
74821;SDS011;63353;48.702;8.884;2023-02-28T09:13:23;17.13;;;10.80;;
74821;SDS011;63353;48.702;8.884;2023-02-28T09:15:52;18.37;;;10.53;;
74821;SDS011;63353;48.702;8.884;2023-02-28T09:18:19;20.23;;;11.27;;
74821;SDS011;63353;48.702;8.884;2023-02-28T09:20:54;43.83;;;22.87;;
74821;SDS011;63353;48.702;8.884;2023-02-28T09:23:20;152.90;;;93.13;;
74821;SDS011;63353;48.702;8.884;2023-02-28T09:25:52;39.83;;;27.57;;
74821;SDS011;63353;48.702;8.884;2023-02-28T09:28:19;21.90;;;12.90;;
74821;SDS011;63353;48.702;8.884;2023-02-28T09:30:49;22.23;;;13.00;;
74821;SDS011;63353;48.702;8.884;2023-02-28T09:33:20;21.63;;;12.67;;
74821;SDS011;63353;48.702;8.884;2023-02-28T09:35:47;18.70;;;10.23;;
74821;SDS011;63353;48.702;8.884;2023-02-28T09:38:16;16.00;;;10.67;;
74821;SDS011;63353;48.702;8.884;2023-02-28T09:40:47;19.50;;;10.97;;
74821;SDS011;63353;48.702;8.884;2023-02-28T09:43:15;18.97;;;11.30;;
74821;SDS011;63353;48.702;8.884;2023-02-28T09:45:42;18.97;;;9.87;;
74821;SDS011;63353;48.702;8.884;2023-02-28T09:48:48;26.57;;;16.33;;
74821;SDS011;63353;48.702;8.884;2023-02-28T09:53:52;21.13;;;13.37;;
74821;SDS011;63353;48.702;8.884;2023-02-28T09:56:24;30.67;;;15.87;;
74821;SDS011;63353;48.702;8.884;2023-02-28T10:04:48;18.97;;;10.80;;
74821;SDS011;63353;48.702;8.884;2023-02-28T10:07:30;35.17;;;16.33;;
74821;SDS011;63353;48.702;8.884;2023-02-28T10:10:35;21.33;;;12.17;;
74821;SDS011;63353;48.702;8.884;2023-02-28T10:13:15;20.70;;;12.23;;
74821;SDS011;63353;48.702;8.884;2023-02-28T10:15:50;21.87;;;12.97;;
74821;SDS011;63353;48.702;8.884;2023-02-28T10:18:28;39.70;;;18.73;;
74821;SDS011;63353;48.702;8.884;2023-02-28T10:21:03;23.33;;;12.90;;
74821;SDS011;63353;48.702;8.884;2023-02-28T10:23:31;26.73;;;13.30;;
74821;SDS011;63353;48.702;8.884;2023-02-28T10:26:32;21.47;;;12.27;;
74821;SDS011;63353;48.702;8.884;2023-02-28T10:28:53;18.60;;;10.20;;
74821;SDS011;63353;48.702;8.884;2023-02-28T10:31:22;21.17;;;11.83;;
74821;SDS011;63353;48.702;8.884;2023-02-28T10:33:48;22.13;;;10.97;;
74821;SDS011;63353;48.702;8.884;2023-02-28T10:36:15;22.13;;;11.70;;
74821;SDS011;63353;48.702;8.884;2023-02-28T10:38:43;23.60;;;15.57;;
74821;SDS011;63353;48.702;8.884;2023-02-28T10:41:17;21.47;;;12.10;;
74821;SDS011;63353;48.702;8.884;2023-02-28T10:43:53;25.23;;;14.47;;
74821;SDS011;63353;48.702;8.884;2023-02-28T10:46:45;41.10;;;22.73;;
74821;SDS011;63353;48.702;8.884;2023-02-28T10:49:17;20.83;;;12.60;;
74821;SDS011;63353;48.702;8.884;2023-02-28T10:51:46;18.60;;;11.70;;
74821;SDS011;63353;48.702;8.884;2023-02-28T10:54:19;30.33;;;19.00;;
74821;SDS011;63353;48.702;8.884;2023-02-28T10:57:08;22.60;;;14.93;;
74821;SDS011;63353;48.702;8.884;2023-02-28T10:59:45;22.40;;;11.90;;
74821;SDS011;63353;48.702;8.884;2023-02-28T11:02:31;23.10;;;14.27;;
74821;SDS011;63353;48.702;8.884;2023-02-28T11:05:02;30.27;;;19.83;;
74821;SDS011;63353;48.702;8.884;2023-02-28T11:08:02;20.57;;;12.23;;
74821;SDS011;63353;48.702;8.884;2023-02-28T11:10:29;21.37;;;13.30;;
74821;SDS011;63353;48.702;8.884;2023-02-28T11:13:02;28.73;;;15.50;;
74821;SDS011;63353;48.702;8.884;2023-02-28T11:15:29;17.07;;;11.03;;
74821;SDS011;63353;48.702;8.884;2023-02-28T11:20:38;21.70;;;12.33;;
74821;SDS011;63353;48.702;8.884;2023-02-28T11:23:04;24.03;;;12.50;;
74821;SDS011;63353;48.702;8.884;2023-02-28T11:25:45;29.17;;;15.97;;
74821;SDS011;63353;48.702;8.884;2023-02-28T11:29:02;20.63;;;12.80;;
74821;SDS011;63353;48.702;8.884;2023-02-28T11:31:05;19.03;;;11.33;;
74821;SDS011;63353;48.702;8.884;2023-02-28T11:33:50;20.03;;;11.70;;
74821;SDS011;63353;48.702;8.884;2023-02-28T11:38:56;19.93;;;11.80;;
74821;SDS011;63353;48.702;8.884;2023-02-28T11:41:48;28.40;;;16.30;;
74821;SDS011;63353;48.702;8.884;2023-02-28T11:47:33;22.93;;;13.70;;
74821;SDS011;63353;48.702;8.884;2023-02-28T11:50:19;22.50;;;13.40;;
74821;SDS011;63353;48.702;8.884;2023-02-28T11:56:15;19.80;;;12.03;;
74821;SDS011;63353;48.702;8.884;2023-02-28T11:59:42;21.43;;;13.00;;
74821;SDS011;63353;48.702;8.884;2023-02-28T12:10:11;30.87;;;17.77;;
74821;SDS011;63353;48.702;8.884;2023-02-28T12:27:29;28.60;;;16.20;;
74821;SDS011;63353;48.702;8.884;2023-02-28T12:30:03;29.73;;;17.40;;
74821;SDS011;63353;48.702;8.884;2023-02-28T12:32:41;17.63;;;11.70;;
74821;SDS011;63353;48.702;8.884;2023-02-28T12:35:21;35.87;;;19.70;;
74821;SDS011;63353;48.702;8.884;2023-02-28T12:38:09;21.70;;;13.30;;
74821;SDS011;63353;48.702;8.884;2023-02-28T12:40:43;20.17;;;12.40;;
74821;SDS011;63353;48.702;8.884;2023-02-28T12:43:19;32.43;;;18.70;;
74821;SDS011;63353;48.702;8.884;2023-02-28T12:48:26;30.70;;;17.40;;
74821;SDS011;63353;48.702;8.884;2023-02-28T12:51:14;17.83;;;12.17;;
74821;SDS011;63353;48.702;8.884;2023-02-28T13:10:00;16.43;;;11.47;;
74821;SDS011;63353;48.702;8.884;2023-02-28T13:12:32;19.90;;;12.80;;
74821;SDS011;63353;48.702;8.884;2023-02-28T13:15:06;19.27;;;12.60;;
74821;SDS011;63353;48.702;8.884;2023-02-28T13:17:41;17.10;;;12.27;;
74821;SDS011;63353;48.702;8.884;2023-02-28T13:20:20;17.73;;;12.73;;
74821;SDS011;63353;48.702;8.884;2023-02-28T13:22:51;17.70;;;12.03;;
74821;SDS011;63353;48.702;8.884;2023-02-28T13:27:47;17.03;;;12.07;;
74821;SDS011;63353;48.702;8.884;2023-02-28T13:33:25;16.30;;;12.17;;
74821;SDS011;63353;48.702;8.884;2023-02-28T13:44:11;14.83;;;11.40;;
74821;SDS011;63353;48.702;8.884;2023-02-28T13:51:50;18.40;;;12.60;;
74821;SDS011;63353;48.702;8.884;2023-02-28T14:05:48;17.67;;;13.33;;
74821;SDS011;63353;48.702;8.884;2023-02-28T14:09:00;18.83;;;14.30;;
74821;SDS011;63353;48.702;8.884;2023-02-28T14:11:48;17.77;;;13.20;;
74821;SDS011;63353;48.702;8.884;2023-02-28T14:17:17;18.20;;;12.83;;
74821;SDS011;63353;48.702;8.884;2023-02-28T14:19:49;16.77;;;13.03;;
74821;SDS011;63353;48.702;8.884;2023-02-28T14:28:19;36.13;;;21.67;;
74821;SDS011;63353;48.702;8.884;2023-02-28T14:31:01;29.73;;;18.33;;
74821;SDS011;63353;48.702;8.884;2023-02-28T14:38:47;18.60;;;13.83;;
74821;SDS011;63353;48.702;8.884;2023-02-28T14:41:20;19.40;;;13.60;;
74821;SDS011;63353;48.702;8.884;2023-02-28T14:43:55;35.57;;;23.00;;
74821;SDS011;63353;48.702;8.884;2023-02-28T14:46:24;17.53;;;13.00;;
74821;SDS011;63353;48.702;8.884;2023-02-28T14:48:53;18.80;;;13.73;;
74821;SDS011;63353;48.702;8.884;2023-02-28T14:51:20;19.43;;;12.57;;
74821;SDS011;63353;48.702;8.884;2023-02-28T14:54:00;16.50;;;12.77;;
74821;SDS011;63353;48.702;8.884;2023-02-28T14:56:33;16.10;;;12.23;;
74821;SDS011;63353;48.702;8.884;2023-02-28T14:59:04;17.77;;;13.30;;
74821;SDS011;63353;48.702;8.884;2023-02-28T15:01:43;16.50;;;12.50;;
74821;SDS011;63353;48.702;8.884;2023-02-28T15:04:15;19.93;;;12.83;;
74821;SDS011;63353;48.702;8.884;2023-02-28T15:07:08;17.13;;;12.13;;
74821;SDS011;63353;48.702;8.884;2023-02-28T15:12:39;19.63;;;13.20;;
74821;SDS011;63353;48.702;8.884;2023-02-28T15:15:06;15.67;;;11.50;;
74821;SDS011;63353;48.702;8.884;2023-02-28T15:17:40;17.40;;;12.03;;
74821;SDS011;63353;48.702;8.884;2023-02-28T15:20:15;16.83;;;12.63;;
74821;SDS011;63353;48.702;8.884;2023-02-28T15:22:43;15.40;;;12.07;;
74821;SDS011;63353;48.702;8.884;2023-02-28T15:25:13;15.93;;;11.57;;
74821;SDS011;63353;48.702;8.884;2023-02-28T15:27:51;13.53;;;11.03;;
74821;SDS011;63353;48.702;8.884;2023-02-28T15:30:27;13.37;;;10.60;;
74821;SDS011;63353;48.702;8.884;2023-02-28T15:35:43;31.37;;;20.63;;
74821;SDS011;63353;48.702;8.884;2023-02-28T15:40:44;16.23;;;11.80;;
74821;SDS011;63353;48.702;8.884;2023-02-28T15:46:07;28.10;;;19.13;;
74821;SDS011;63353;48.702;8.884;2023-02-28T15:48:54;13.43;;;10.93;;
74821;SDS011;63353;48.702;8.884;2023-02-28T15:51:30;14.80;;;11.67;;
74821;SDS011;63353;48.702;8.884;2023-02-28T15:54:01;13.53;;;10.73;;
74821;SDS011;63353;48.702;8.884;2023-02-28T15:56:30;14.03;;;11.90;;
74821;SDS011;63353;48.702;8.884;2023-02-28T15:59:21;15.07;;;11.70;;
74821;SDS011;63353;48.702;8.884;2023-02-28T16:04:34;14.30;;;11.13;;
74821;SDS011;63353;48.702;8.884;2023-02-28T16:09:33;18.63;;;13.87;;
74821;SDS011;63353;48.702;8.884;2023-02-28T16:11:59;18.97;;;14.07;;
74821;SDS011;63353;48.702;8.884;2023-02-28T16:14:32;18.13;;;13.80;;
74821;SDS011;63353;48.702;8.884;2023-02-28T16:17:04;17.03;;;13.30;;
74821;SDS011;63353;48.702;8.884;2023-02-28T16:19:31;17.10;;;12.87;;
74821;SDS011;63353;48.702;8.884;2023-02-28T16:21:57;19.30;;;13.63;;
74821;SDS011;63353;48.702;8.884;2023-02-28T16:24:23;18.47;;;12.67;;
74821;SDS011;63353;48.702;8.884;2023-02-28T16:26:49;20.00;;;14.17;;
74821;SDS011;63353;48.702;8.884;2023-02-28T16:29:24;38.73;;;22.43;;
74821;SDS011;63353;48.702;8.884;2023-02-28T16:31:55;18.17;;;12.03;;
74821;SDS011;63353;48.702;8.884;2023-02-28T16:34:21;21.40;;;14.23;;
74821;SDS011;63353;48.702;8.884;2023-02-28T16:36:47;17.13;;;11.77;;
74821;SDS011;63353;48.702;8.884;2023-02-28T16:39:14;26.87;;;16.47;;
74821;SDS011;63353;48.702;8.884;2023-02-28T16:41:41;26.30;;;15.80;;
74821;SDS011;63353;48.702;8.884;2023-02-28T16:44:13;27.23;;;16.13;;
74821;SDS011;63353;48.702;8.884;2023-02-28T16:46:53;28.50;;;16.73;;
74821;SDS011;63353;48.702;8.884;2023-02-28T16:49:19;31.67;;;19.67;;
74821;SDS011;63353;48.702;8.884;2023-02-28T16:51:48;41.83;;;22.33;;
74821;SDS011;63353;48.702;8.884;2023-02-28T16:54:14;26.73;;;15.00;;
74821;SDS011;63353;48.702;8.884;2023-02-28T16:56:41;27.87;;;16.97;;
74821;SDS011;63353;48.702;8.884;2023-02-28T16:59:09;28.80;;;19.73;;
74821;SDS011;63353;48.702;8.884;2023-02-28T17:01:36;30.07;;;17.70;;
74821;SDS011;63353;48.702;8.884;2023-02-28T17:04:05;22.23;;;14.13;;
74821;SDS011;63353;48.702;8.884;2023-02-28T17:06:33;19.30;;;12.73;;
74821;SDS011;63353;48.702;8.884;2023-02-28T17:08:59;20.63;;;12.93;;
74821;SDS011;63353;48.702;8.884;2023-02-28T17:11:27;25.33;;;14.60;;
74821;SDS011;63353;48.702;8.884;2023-02-28T17:13:56;25.37;;;14.53;;
74821;SDS011;63353;48.702;8.884;2023-02-28T17:19:17;25.73;;;15.50;;
74821;SDS011;63353;48.702;8.884;2023-02-28T17:21:43;23.83;;;15.37;;
74821;SDS011;63353;48.702;8.884;2023-02-28T17:24:09;25.37;;;15.60;;
74821;SDS011;63353;48.702;8.884;2023-02-28T17:26:37;20.87;;;13.43;;
74821;SDS011;63353;48.702;8.884;2023-02-28T17:29:05;20.03;;;13.00;;
74821;SDS011;63353;48.702;8.884;2023-02-28T17:31:43;23.10;;;14.43;;
74821;SDS011;63353;48.702;8.884;2023-02-28T17:34:15;22.23;;;13.70;;
74821;SDS011;63353;48.702;8.884;2023-02-28T17:36:43;33.33;;;16.53;;
74821;SDS011;63353;48.702;8.884;2023-02-28T17:39:10;82.30;;;31.20;;
74821;SDS011;63353;48.702;8.884;2023-02-28T17:41:39;73.40;;;28.67;;
74821;SDS011;63353;48.702;8.884;2023-02-28T17:44:06;63.43;;;26.43;;
74821;SDS011;63353;48.702;8.884;2023-02-28T17:46:32;132.70;;;47.13;;
74821;SDS011;63353;48.702;8.884;2023-02-28T17:48:58;49.80;;;25.17;;
74821;SDS011;63353;48.702;8.884;2023-02-28T17:51:25;32.27;;;20.17;;
74821;SDS011;63353;48.702;8.884;2023-02-28T17:53:51;31.23;;;18.73;;
74821;SDS011;63353;48.702;8.884;2023-02-28T17:56:21;41.23;;;21.20;;
74821;SDS011;63353;48.702;8.884;2023-02-28T17:58:48;37.00;;;20.60;;
74821;SDS011;63353;48.702;8.884;2023-02-28T18:01:18;38.43;;;19.93;;